sensor_id;sensor_type;location;lat;lon;timestamp;temperature;humidity
51765;DHT22;37835;53.256;6.456;2023-12-20T00:00:36;5.40;99.90
51765;DHT22;37835;53.256;6.456;2023-12-20T00:03:03;5.20;99.90
51765;DHT22;37835;53.256;6.456;2023-12-20T00:05:28;5.40;99.90
51765;DHT22;37835;53.256;6.456;2023-12-20T00:07:54;5.40;99.90
51765;DHT22;37835;53.256;6.456;2023-12-20T00:10:20;5.30;99.90
51765;DHT22;37835;53.256;6.456;2023-12-20T00:12:45;5.60;99.90
51765;DHT22;37835;53.256;6.456;2023-12-20T00:15:11;5.30;99.90
51765;DHT22;37835;53.256;6.456;2023-12-20T00:17:36;5.30;99.90
51765;DHT22;37835;53.256;6.456;2023-12-20T00:20:02;5.90;99.90
51765;DHT22;37835;53.256;6.456;2023-12-20T00:22:28;5.30;99.90
51765;DHT22;37835;53.256;6.456;2023-12-20T00:24:54;5.30;99.90
51765;DHT22;37835;53.256;6.456;2023-12-20T00:27:19;5.20;99.90
51765;DHT22;37835;53.256;6.456;2023-12-20T00:29:45;5.10;99.90
51765;DHT22;37835;53.256;6.456;2023-12-20T00:32:13;5.20;99.90
51765;DHT22;37835;53.256;6.456;2023-12-20T00:34:39;5.20;99.90
51765;DHT22;37835;53.256;6.456;2023-12-20T00:37:04;5.40;99.90
51765;DHT22;37835;53.256;6.456;2023-12-20T00:39:31;5.30;99.90
51765;DHT22;37835;53.256;6.456;2023-12-20T00:41:58;5.20;99.90
51765;DHT22;37835;53.256;6.456;2023-12-20T00:44:24;5.20;99.90
51765;DHT22;37835;53.256;6.456;2023-12-20T00:46:49;5.80;99.90
51765;DHT22;37835;53.256;6.456;2023-12-20T00:49:15;5.50;99.90
51765;DHT22;37835;53.256;6.456;2023-12-20T00:51:40;5.00;99.90
51765;DHT22;37835;53.256;6.456;2023-12-20T00:54:06;5.30;99.90
51765;DHT22;37835;53.256;6.456;2023-12-20T00:56:31;5.40;99.90
51765;DHT22;37835;53.256;6.456;2023-12-20T00:58:57;5.40;99.90
51765;DHT22;37835;53.256;6.456;2023-12-20T01:01:23;5.40;99.90
51765;DHT22;37835;53.256;6.456;2023-12-20T01:03:48;5.40;99.90
51765;DHT22;37835;53.256;6.456;2023-12-20T01:06:16;5.40;99.90
51765;DHT22;37835;53.256;6.456;2023-12-20T01:08:42;5.40;99.90
51765;DHT22;37835;53.256;6.456;2023-12-20T01:11:08;5.40;99.90
51765;DHT22;37835;53.256;6.456;2023-12-20T01:13:33;5.40;99.90
51765;DHT22;37835;53.256;6.456;2023-12-20T01:15:59;5.40;99.90
51765;DHT22;37835;53.256;6.456;2023-12-20T01:18:25;5.40;99.90
51765;DHT22;37835;53.256;6.456;2023-12-20T01:20:50;5.40;99.90
51765;DHT22;37835;53.256;6.456;2023-12-20T01:23:16;5.10;99.90
51765;DHT22;37835;53.256;6.456;2023-12-20T01:25:42;5.30;99.90
51765;DHT22;37835;53.256;6.456;2023-12-20T01:28:08;5.40;99.90
51765;DHT22;37835;53.256;6.456;2023-12-20T01:30:34;5.30;99.90
51765;DHT22;37835;53.256;6.456;2023-12-20T01:33:00;5.40;99.90
51765;DHT22;37835;53.256;6.456;2023-12-20T01:35:27;5.40;99.90
51765;DHT22;37835;53.256;6.456;2023-12-20T01:37:52;5.40;99.90
51765;DHT22;37835;53.256;6.456;2023-12-20T01:40:22;5.40;99.90
51765;DHT22;37835;53.256;6.456;2023-12-20T01:42:57;5.40;99.90
51765;DHT22;37835;53.256;6.456;2023-12-20T01:45:23;5.40;99.90
51765;DHT22;37835;53.256;6.456;2023-12-20T01:47:49;5.40;99.90
51765;DHT22;37835;53.256;6.456;2023-12-20T01:50:15;5.50;99.90
51765;DHT22;37835;53.256;6.456;2023-12-20T01:52:42;5.50;99.90
51765;DHT22;37835;53.256;6.456;2023-12-20T01:55:09;5.60;99.90
51765;DHT22;37835;53.256;6.456;2023-12-20T01:57:40;5.60;99.90
51765;DHT22;37835;53.256;6.456;2023-12-20T02:00:07;5.60;99.90
51765;DHT22;37835;53.256;6.456;2023-12-20T02:02:36;5.60;99.90
51765;DHT22;37835;53.256;6.456;2023-12-20T02:05:05;5.60;99.90
51765;DHT22;37835;53.256;6.456;2023-12-20T02:07:31;5.70;99.90
51765;DHT22;37835;53.256;6.456;2023-12-20T02:09:57;5.70;99.90
51765;DHT22;37835;53.256;6.456;2023-12-20T02:12:23;5.70;99.90
51765;DHT22;37835;53.256;6.456;2023-12-20T02:14:49;5.70;99.90
51765;DHT22;37835;53.256;6.456;2023-12-20T02:17:16;5.70;99.90
51765;DHT22;37835;53.256;6.456;2023-12-20T02:19:41;5.70;99.90
51765;DHT22;37835;53.256;6.456;2023-12-20T02:22:13;5.70;99.90
51765;DHT22;37835;53.256;6.456;2023-12-20T02:24:39;6.40;99.90
51765;DHT22;37835;53.256;6.456;2023-12-20T02:27:08;5.70;99.90
51765;DHT22;37835;53.256;6.456;2023-12-20T02:29:35;5.60;99.90
51765;DHT22;37835;53.256;6.456;2023-12-20T02:32:00;5.80;99.90
51765;DHT22;37835;53.256;6.456;2023-12-20T02:34:26;5.70;99.90
51765;DHT22;37835;53.256;6.456;2023-12-20T02:36:52;5.70;99.90
51765;DHT22;37835;53.256;6.456;2023-12-20T02:39:20;5.80;99.90
51765;DHT22;37835;53.256;6.456;2023-12-20T02:41:46;5.80;99.90
51765;DHT22;37835;53.256;6.456;2023-12-20T02:44:12;5.80;99.90
51765;DHT22;37835;53.256;6.456;2023-12-20T02:46:37;5.90;99.90
51765;DHT22;37835;53.256;6.456;2023-12-20T02:49:03;5.90;99.90
51765;DHT22;37835;53.256;6.456;2023-12-20T02:51:29;6.00;99.90
51765;DHT22;37835;53.256;6.456;2023-12-20T02:53:54;5.90;99.90
51765;DHT22;37835;53.256;6.456;2023-12-20T02:56:20;5.80;99.90
51765;DHT22;37835;53.256;6.456;2023-12-20T02:58:45;5.80;99.90
51765;DHT22;37835;53.256;6.456;2023-12-20T03:01:11;6.00;99.90
51765;DHT22;37835;53.256;6.456;2023-12-20T03:03:37;6.10;99.90
51765;DHT22;37835;53.256;6.456;2023-12-20T03:06:02;6.10;99.90
51765;DHT22;37835;53.256;6.456;2023-12-20T03:08:28;6.10;99.90
51765;DHT22;37835;53.256;6.456;2023-12-20T03:10:54;6.20;99.90
51765;DHT22;37835;53.256;6.456;2023-12-20T03:13:19;6.10;99.90
51765;DHT22;37835;53.256;6.456;2023-12-20T03:15:45;5.90;99.90
51765;DHT22;37835;53.256;6.456;2023-12-20T03:18:11;6.10;99.90
51765;DHT22;37835;53.256;6.456;2023-12-20T03:20:37;6.10;99.90
51765;DHT22;37835;53.256;6.456;2023-12-20T03:23:03;6.20;99.90
51765;DHT22;37835;53.256;6.456;2023-12-20T03:25:29;6.20;99.90
51765;DHT22;37835;53.256;6.456;2023-12-20T03:27:54;6.30;99.90
51765;DHT22;37835;53.256;6.456;2023-12-20T03:30:20;6.30;99.90
51765;DHT22;37835;53.256;6.456;2023-12-20T03:32:46;6.30;99.90
51765;DHT22;37835;53.256;6.456;2023-12-20T03:35:12;7.40;99.90
51765;DHT22;37835;53.256;6.456;2023-12-20T03:37:37;5.70;99.90
51765;DHT22;37835;53.256;6.456;2023-12-20T03:40:03;6.40;99.90
51765;DHT22;37835;53.256;6.456;2023-12-20T03:42:29;6.20;99.90
51765;DHT22;37835;53.256;6.456;2023-12-20T03:44:54;6.50;99.90
51765;DHT22;37835;53.256;6.456;2023-12-20T03:47:20;6.20;99.90
51765;DHT22;37835;53.256;6.456;2023-12-20T03:49:46;6.20;99.90
51765;DHT22;37835;53.256;6.456;2023-12-20T03:52:11;5.90;99.90
51765;DHT22;37835;53.256;6.456;2023-12-20T03:54:37;6.20;99.90
51765;DHT22;37835;53.256;6.456;2023-12-20T03:57:03;6.40;99.90
51765;DHT22;37835;53.256;6.456;2023-12-20T03:59:30;6.20;99.90
51765;DHT22;37835;53.256;6.456;2023-12-20T04:01:59;6.20;99.90
51765;DHT22;37835;53.256;6.456;2023-12-20T04:04:25;6.10;99.90
51765;DHT22;37835;53.256;6.456;2023-12-20T04:06:51;6.10;99.90
51765;DHT22;37835;53.256;6.456;2023-12-20T04:09:16;6.10;99.90
51765;DHT22;37835;53.256;6.456;2023-12-20T04:11:42;6.10;99.90
51765;DHT22;37835;53.256;6.456;2023-12-20T04:14:07;6.20;99.90
51765;DHT22;37835;53.256;6.456;2023-12-20T04:16:33;6.00;99.90
51765;DHT22;37835;53.256;6.456;2023-12-20T04:18:59;6.20;99.90
51765;DHT22;37835;53.256;6.456;2023-12-20T04:21:24;6.30;99.90
51765;DHT22;37835;53.256;6.456;2023-12-20T04:23:50;6.30;99.90
51765;DHT22;37835;53.256;6.456;2023-12-20T04:26:15;6.30;99.90
51765;DHT22;37835;53.256;6.456;2023-12-20T04:28:41;6.40;99.90
51765;DHT22;37835;53.256;6.456;2023-12-20T04:31:07;6.40;99.90
51765;DHT22;37835;53.256;6.456;2023-12-20T04:33:33;6.40;99.90
51765;DHT22;37835;53.256;6.456;2023-12-20T04:35:58;6.50;99.90
51765;DHT22;37835;53.256;6.456;2023-12-20T04:38:25;6.50;99.90
51765;DHT22;37835;53.256;6.456;2023-12-20T04:40:51;6.60;99.90
51765;DHT22;37835;53.256;6.456;2023-12-20T04:43:17;6.60;99.90
51765;DHT22;37835;53.256;6.456;2023-12-20T04:45:43;6.60;99.90
51765;DHT22;37835;53.256;6.456;2023-12-20T04:48:08;6.60;99.90
51765;DHT22;37835;53.256;6.456;2023-12-20T04:50:34;6.70;99.90
51765;DHT22;37835;53.256;6.456;2023-12-20T04:53:00;6.60;99.90
51765;DHT22;37835;53.256;6.456;2023-12-20T04:55:26;6.70;99.90
51765;DHT22;37835;53.256;6.456;2023-12-20T04:57:51;6.40;99.90
51765;DHT22;37835;53.256;6.456;2023-12-20T05:00:17;6.70;99.90
51765;DHT22;37835;53.256;6.456;2023-12-20T05:02:43;6.70;99.90
51765;DHT22;37835;53.256;6.456;2023-12-20T05:05:09;6.80;99.90
51765;DHT22;37835;53.256;6.456;2023-12-20T05:07:34;7.00;99.90
51765;DHT22;37835;53.256;6.456;2023-12-20T05:10:00;6.80;99.90
51765;DHT22;37835;53.256;6.456;2023-12-20T05:12:26;6.80;99.90
51765;DHT22;37835;53.256;6.456;2023-12-20T05:14:54;7.30;99.90
51765;DHT22;37835;53.256;6.456;2023-12-20T05:17:20;6.80;99.90
51765;DHT22;37835;53.256;6.456;2023-12-20T05:19:46;6.80;99.90
51765;DHT22;37835;53.256;6.456;2023-12-20T05:22:11;6.80;99.90
51765;DHT22;37835;53.256;6.456;2023-12-20T05:24:37;7.40;99.90
51765;DHT22;37835;53.256;6.456;2023-12-20T05:27:03;6.70;99.90
51765;DHT22;37835;53.256;6.456;2023-12-20T05:29:28;6.90;99.90
51765;DHT22;37835;53.256;6.456;2023-12-20T05:31:54;7.00;99.90
51765;DHT22;37835;53.256;6.456;2023-12-20T05:34:20;7.00;99.90
51765;DHT22;37835;53.256;6.456;2023-12-20T05:36:46;7.00;99.90
51765;DHT22;37835;53.256;6.456;2023-12-20T05:39:11;7.00;99.90
51765;DHT22;37835;53.256;6.456;2023-12-20T05:41:37;7.00;99.90
51765;DHT22;37835;53.256;6.456;2023-12-20T05:44:03;7.60;99.90
51765;DHT22;37835;53.256;6.456;2023-12-20T05:46:28;7.00;99.90
51765;DHT22;37835;53.256;6.456;2023-12-20T05:48:54;7.00;99.90
51765;DHT22;37835;53.256;6.456;2023-12-20T05:51:20;7.00;99.90
51765;DHT22;37835;53.256;6.456;2023-12-20T05:53:45;7.10;99.90
51765;DHT22;37835;53.256;6.456;2023-12-20T05:56:11;7.10;99.90
51765;DHT22;37835;53.256;6.456;2023-12-20T05:58:38;7.10;99.90
51765;DHT22;37835;53.256;6.456;2023-12-20T06:01:04;7.10;99.90
51765;DHT22;37835;53.256;6.456;2023-12-20T06:03:30;7.10;99.90
51765;DHT22;37835;53.256;6.456;2023-12-20T06:05:56;7.20;99.90
51765;DHT22;37835;53.256;6.456;2023-12-20T06:08:22;7.40;99.90
51765;DHT22;37835;53.256;6.456;2023-12-20T06:10:47;7.20;99.90
51765;DHT22;37835;53.256;6.456;2023-12-20T06:13:13;7.00;99.90
51765;DHT22;37835;53.256;6.456;2023-12-20T06:15:39;7.20;99.90
51765;DHT22;37835;53.256;6.456;2023-12-20T06:18:06;7.20;99.90
51765;DHT22;37835;53.256;6.456;2023-12-20T06:20:32;7.30;99.90
51765;DHT22;37835;53.256;6.456;2023-12-20T06:22:58;7.30;99.90
51765;DHT22;37835;53.256;6.456;2023-12-20T06:25:24;7.30;99.90
51765;DHT22;37835;53.256;6.456;2023-12-20T06:27:49;7.30;99.90
51765;DHT22;37835;53.256;6.456;2023-12-20T06:30:16;7.10;99.90
51765;DHT22;37835;53.256;6.456;2023-12-20T06:32:42;7.30;99.90
51765;DHT22;37835;53.256;6.456;2023-12-20T06:35:09;7.10;99.90
51765;DHT22;37835;53.256;6.456;2023-12-20T06:37:35;7.10;99.90
51765;DHT22;37835;53.256;6.456;2023-12-20T06:40:01;7.20;99.90
51765;DHT22;37835;53.256;6.456;2023-12-20T06:42:26;7.30;99.90
51765;DHT22;37835;53.256;6.456;2023-12-20T06:44:52;7.30;99.90
51765;DHT22;37835;53.256;6.456;2023-12-20T06:47:18;7.30;99.90
51765;DHT22;37835;53.256;6.456;2023-12-20T06:49:44;7.40;99.90
51765;DHT22;37835;53.256;6.456;2023-12-20T06:52:09;7.30;99.90
51765;DHT22;37835;53.256;6.456;2023-12-20T06:54:36;7.30;99.90
51765;DHT22;37835;53.256;6.456;2023-12-20T06:57:01;7.40;99.90
51765;DHT22;37835;53.256;6.456;2023-12-20T06:59:29;7.40;99.90
51765;DHT22;37835;53.256;6.456;2023-12-20T07:01:55;7.40;99.90
51765;DHT22;37835;53.256;6.456;2023-12-20T07:04:20;7.30;99.90
51765;DHT22;37835;53.256;6.456;2023-12-20T07:06:50;7.40;99.90
51765;DHT22;37835;53.256;6.456;2023-12-20T07:09:17;7.40;99.90
51765;DHT22;37835;53.256;6.456;2023-12-20T07:11:43;7.50;99.90
51765;DHT22;37835;53.256;6.456;2023-12-20T07:14:08;7.50;99.90
51765;DHT22;37835;53.256;6.456;2023-12-20T07:16:34;7.50;99.90
51765;DHT22;37835;53.256;6.456;2023-12-20T07:19:00;7.50;99.90
51765;DHT22;37835;53.256;6.456;2023-12-20T07:21:26;8.00;99.90
51765;DHT22;37835;53.256;6.456;2023-12-20T07:23:51;7.80;99.90
51765;DHT22;37835;53.256;6.456;2023-12-20T07:26:18;7.60;99.90
51765;DHT22;37835;53.256;6.456;2023-12-20T07:28:44;7.60;99.90
51765;DHT22;37835;53.256;6.456;2023-12-20T07:31:10;7.60;99.90
51765;DHT22;37835;53.256;6.456;2023-12-20T07:33:36;7.80;99.90
51765;DHT22;37835;53.256;6.456;2023-12-20T07:36:02;8.20;99.90
51765;DHT22;37835;53.256;6.456;2023-12-20T07:38:27;7.60;99.90
51765;DHT22;37835;53.256;6.456;2023-12-20T07:40:53;7.70;99.90
51765;DHT22;37835;53.256;6.456;2023-12-20T07:43:18;7.70;99.90
51765;DHT22;37835;53.256;6.456;2023-12-20T07:45:44;7.60;99.90
51765;DHT22;37835;53.256;6.456;2023-12-20T07:48:10;8.40;99.90
51765;DHT22;37835;53.256;6.456;2023-12-20T07:50:35;7.70;99.90
51765;DHT22;37835;53.256;6.456;2023-12-20T07:53:02;7.60;99.90
51765;DHT22;37835;53.256;6.456;2023-12-20T07:55:28;7.70;99.90
51765;DHT22;37835;53.256;6.456;2023-12-20T07:57:55;7.70;99.90
51765;DHT22;37835;53.256;6.456;2023-12-20T08:00:21;7.70;99.90
51765;DHT22;37835;53.256;6.456;2023-12-20T08:02:47;7.70;99.90
51765;DHT22;37835;53.256;6.456;2023-12-20T08:05:12;7.50;99.90
51765;DHT22;37835;53.256;6.456;2023-12-20T08:07:39;7.70;99.90
51765;DHT22;37835;53.256;6.456;2023-12-20T08:10:05;7.70;99.90
51765;DHT22;37835;53.256;6.456;2023-12-20T08:12:31;7.70;99.90
51765;DHT22;37835;53.256;6.456;2023-12-20T08:14:56;7.80;99.90
51765;DHT22;37835;53.256;6.456;2023-12-20T08:17:22;7.70;99.90
51765;DHT22;37835;53.256;6.456;2023-12-20T08:19:49;7.70;99.90
51765;DHT22;37835;53.256;6.456;2023-12-20T08:22:14;7.70;99.90
51765;DHT22;37835;53.256;6.456;2023-12-20T08:24:40;7.70;99.90
51765;DHT22;37835;53.256;6.456;2023-12-20T08:27:06;7.70;99.90
51765;DHT22;37835;53.256;6.456;2023-12-20T08:29:31;7.70;99.90
51765;DHT22;37835;53.256;6.456;2023-12-20T08:31:57;7.40;99.90
51765;DHT22;37835;53.256;6.456;2023-12-20T08:34:23;7.60;99.90
51765;DHT22;37835;53.256;6.456;2023-12-20T08:36:50;7.30;99.90
51765;DHT22;37835;53.256;6.456;2023-12-20T08:39:17;7.10;99.90
51765;DHT22;37835;53.256;6.456;2023-12-20T08:41:42;7.00;99.90
51765;DHT22;37835;53.256;6.456;2023-12-20T08:44:09;6.80;99.90
51765;DHT22;37835;53.256;6.456;2023-12-20T08:46:35;6.50;99.90
51765;DHT22;37835;53.256;6.456;2023-12-20T08:49:01;6.30;99.90
51765;DHT22;37835;53.256;6.456;2023-12-20T08:51:27;5.90;99.90
51765;DHT22;37835;53.256;6.456;2023-12-20T08:53:53;5.80;99.90
51765;DHT22;37835;53.256;6.456;2023-12-20T08:56:19;5.60;99.90
51765;DHT22;37835;53.256;6.456;2023-12-20T08:58:46;5.60;99.90
51765;DHT22;37835;53.256;6.456;2023-12-20T09:01:12;5.50;99.90
51765;DHT22;37835;53.256;6.456;2023-12-20T09:03:39;5.60;99.90
51765;DHT22;37835;53.256;6.456;2023-12-20T09:06:05;5.30;99.90
51765;DHT22;37835;53.256;6.456;2023-12-20T09:08:31;5.60;99.90
51765;DHT22;37835;53.256;6.456;2023-12-20T09:10:57;5.70;99.90
51765;DHT22;37835;53.256;6.456;2023-12-20T09:13:22;5.80;99.90
51765;DHT22;37835;53.256;6.456;2023-12-20T09:15:56;5.60;99.90
51765;DHT22;37835;53.256;6.456;2023-12-20T09:18:22;6.40;99.90
51765;DHT22;37835;53.256;6.456;2023-12-20T09:20:48;5.60;99.90
51765;DHT22;37835;53.256;6.456;2023-12-20T09:23:14;5.60;99.90
51765;DHT22;37835;53.256;6.456;2023-12-20T09:25:39;5.60;99.90
51765;DHT22;37835;53.256;6.456;2023-12-20T09:28:05;5.30;99.90
51765;DHT22;37835;53.256;6.456;2023-12-20T09:30:31;5.60;99.90
51765;DHT22;37835;53.256;6.456;2023-12-20T09:32:57;5.60;99.90
51765;DHT22;37835;53.256;6.456;2023-12-20T09:35:23;5.30;99.90
51765;DHT22;37835;53.256;6.456;2023-12-20T09:37:49;5.60;99.90
51765;DHT22;37835;53.256;6.456;2023-12-20T09:40:18;5.60;99.90
51765;DHT22;37835;53.256;6.456;2023-12-20T09:42:56;5.30;99.90
51765;DHT22;37835;53.256;6.456;2023-12-20T09:45:22;5.70;99.90
51765;DHT22;37835;53.256;6.456;2023-12-20T09:47:52;6.00;99.90
51765;DHT22;37835;53.256;6.456;2023-12-20T09:50:20;5.40;99.90
51765;DHT22;37835;53.256;6.456;2023-12-20T09:52:50;5.40;99.90
51765;DHT22;37835;53.256;6.456;2023-12-20T09:55:18;5.80;99.90
51765;DHT22;37835;53.256;6.456;2023-12-20T09:57:45;5.80;99.90
51765;DHT22;37835;53.256;6.456;2023-12-20T10:00:11;5.80;99.90
51765;DHT22;37835;53.256;6.456;2023-12-20T10:02:40;5.90;99.90
51765;DHT22;37835;53.256;6.456;2023-12-20T10:05:08;5.60;99.90
51765;DHT22;37835;53.256;6.456;2023-12-20T10:07:37;6.00;99.90
51765;DHT22;37835;53.256;6.456;2023-12-20T10:10:03;6.10;99.90
51765;DHT22;37835;53.256;6.456;2023-12-20T10:12:29;6.20;99.90
51765;DHT22;37835;53.256;6.456;2023-12-20T10:14:56;6.50;99.90
51765;DHT22;37835;53.256;6.456;2023-12-20T10:17:22;6.30;99.90
51765;DHT22;37835;53.256;6.456;2023-12-20T10:19:49;7.00;99.90
51765;DHT22;37835;53.256;6.456;2023-12-20T10:22:15;7.10;99.90
51765;DHT22;37835;53.256;6.456;2023-12-20T10:24:40;6.30;99.90
51765;DHT22;37835;53.256;6.456;2023-12-20T10:27:07;6.40;99.90
51765;DHT22;37835;53.256;6.456;2023-12-20T10:29:37;6.60;99.90
51765;DHT22;37835;53.256;6.456;2023-12-20T10:32:23;6.70;99.90
51765;DHT22;37835;53.256;6.456;2023-12-20T10:34:50;6.70;99.90
51765;DHT22;37835;53.256;6.456;2023-12-20T10:37:16;6.80;99.90
51765;DHT22;37835;53.256;6.456;2023-12-20T10:39:43;6.90;99.90
51765;DHT22;37835;53.256;6.456;2023-12-20T10:42:12;6.90;99.90
51765;DHT22;37835;53.256;6.456;2023-12-20T10:44:38;7.30;99.90
51765;DHT22;37835;53.256;6.456;2023-12-20T10:47:05;6.60;99.90
51765;DHT22;37835;53.256;6.456;2023-12-20T10:49:36;7.00;99.90
51765;DHT22;37835;53.256;6.456;2023-12-20T10:52:04;7.00;99.90
51765;DHT22;37835;53.256;6.456;2023-12-20T10:54:31;7.00;99.90
51765;DHT22;37835;53.256;6.456;2023-12-20T10:56:58;7.40;99.90
51765;DHT22;37835;53.256;6.456;2023-12-20T10:59:24;7.00;99.90
51765;DHT22;37835;53.256;6.456;2023-12-20T11:01:50;7.10;99.90
51765;DHT22;37835;53.256;6.456;2023-12-20T11:04:31;7.00;99.90
51765;DHT22;37835;53.256;6.456;2023-12-20T11:07:13;7.70;99.90
51765;DHT22;37835;53.256;6.456;2023-12-20T11:09:45;6.60;99.90
51765;DHT22;37835;53.256;6.456;2023-12-20T11:12:13;6.90;99.90
51765;DHT22;37835;53.256;6.456;2023-12-20T11:14:51;7.00;99.90
51765;DHT22;37835;53.256;6.456;2023-12-20T11:17:17;7.00;99.90
51765;DHT22;37835;53.256;6.456;2023-12-20T11:20:04;7.00;99.90
51765;DHT22;37835;53.256;6.456;2023-12-20T11:22:31;6.90;99.90
51765;DHT22;37835;53.256;6.456;2023-12-20T11:25:10;6.60;99.90
51765;DHT22;37835;53.256;6.456;2023-12-20T11:27:40;6.70;99.90
51765;DHT22;37835;53.256;6.456;2023-12-20T11:30:06;6.90;99.90
51765;DHT22;37835;53.256;6.456;2023-12-20T11:32:34;7.00;99.90
51765;DHT22;37835;53.256;6.456;2023-12-20T11:37:38;7.10;99.90
51765;DHT22;37835;53.256;6.456;2023-12-20T11:40:11;7.10;99.90
51765;DHT22;37835;53.256;6.456;2023-12-20T11:42:38;7.10;99.90
51765;DHT22;37835;53.256;6.456;2023-12-20T11:45:05;7.20;99.90
51765;DHT22;37835;53.256;6.456;2023-12-20T11:47:34;7.20;99.90
51765;DHT22;37835;53.256;6.456;2023-12-20T11:50:00;7.60;99.90
51765;DHT22;37835;53.256;6.456;2023-12-20T11:52:29;7.20;99.90
51765;DHT22;37835;53.256;6.456;2023-12-20T11:54:55;7.20;99.90
51765;DHT22;37835;53.256;6.456;2023-12-20T11:57:21;7.90;99.90
51765;DHT22;37835;53.256;6.456;2023-12-20T11:59:47;7.20;99.90
51765;DHT22;37835;53.256;6.456;2023-12-20T12:02:15;7.20;99.90
51765;DHT22;37835;53.256;6.456;2023-12-20T12:04:48;7.20;99.90
51765;DHT22;37835;53.256;6.456;2023-12-20T12:09:40;7.20;99.90
51765;DHT22;37835;53.256;6.456;2023-12-20T12:12:06;7.10;99.90
51765;DHT22;37835;53.256;6.456;2023-12-20T12:14:33;7.20;99.90
51765;DHT22;37835;53.256;6.456;2023-12-20T12:16:59;7.20;99.90
51765;DHT22;37835;53.256;6.456;2023-12-20T12:19:25;7.20;99.90
51765;DHT22;37835;53.256;6.456;2023-12-20T12:22:04;7.20;99.90
51765;DHT22;37835;53.256;6.456;2023-12-20T12:24:36;7.40;99.90
51765;DHT22;37835;53.256;6.456;2023-12-20T12:27:08;7.20;99.90
51765;DHT22;37835;53.256;6.456;2023-12-20T12:29:35;7.00;99.90
51765;DHT22;37835;53.256;6.456;2023-12-20T12:32:04;7.20;99.90
51765;DHT22;37835;53.256;6.456;2023-12-20T12:34:31;7.20;99.90
51765;DHT22;37835;53.256;6.456;2023-12-20T12:36:57;7.20;99.90
51765;DHT22;37835;53.256;6.456;2023-12-20T12:39:23;7.20;99.90
51765;DHT22;37835;53.256;6.456;2023-12-20T12:41:59;6.90;99.90
51765;DHT22;37835;53.256;6.456;2023-12-20T12:44:25;7.10;99.90
51765;DHT22;37835;53.256;6.456;2023-12-20T12:46:51;7.10;99.90
51765;DHT22;37835;53.256;6.456;2023-12-20T12:49:19;6.80;99.90
51765;DHT22;37835;53.256;6.456;2023-12-20T12:51:45;7.20;99.90
51765;DHT22;37835;53.256;6.456;2023-12-20T12:54:11;7.20;99.90
51765;DHT22;37835;53.256;6.456;2023-12-20T12:56:39;7.20;99.90
51765;DHT22;37835;53.256;6.456;2023-12-20T12:59:05;7.20;99.90
51765;DHT22;37835;53.256;6.456;2023-12-20T13:01:31;7.20;99.90
51765;DHT22;37835;53.256;6.456;2023-12-20T13:04:00;7.30;99.90
51765;DHT22;37835;53.256;6.456;2023-12-20T13:06:28;7.20;99.90
51765;DHT22;37835;53.256;6.456;2023-12-20T13:08:54;7.60;99.90
51765;DHT22;37835;53.256;6.456;2023-12-20T13:11:20;7.30;99.90
51765;DHT22;37835;53.256;6.456;2023-12-20T13:13:46;7.30;99.90
51765;DHT22;37835;53.256;6.456;2023-12-20T13:16:12;7.90;99.90
51765;DHT22;37835;53.256;6.456;2023-12-20T13:18:38;7.30;99.90
51765;DHT22;37835;53.256;6.456;2023-12-20T13:21:08;7.20;99.90
51765;DHT22;37835;53.256;6.456;2023-12-20T13:23:34;7.70;99.90
51765;DHT22;37835;53.256;6.456;2023-12-20T13:25:59;6.90;99.90
51765;DHT22;37835;53.256;6.456;2023-12-20T13:28:25;7.40;99.90
51765;DHT22;37835;53.256;6.456;2023-12-20T13:30:51;7.20;99.90
51765;DHT22;37835;53.256;6.456;2023-12-20T13:33:17;7.20;99.90
51765;DHT22;37835;53.256;6.456;2023-12-20T13:35:42;7.70;99.90
51765;DHT22;37835;53.256;6.456;2023-12-20T13:38:08;7.10;99.90
51765;DHT22;37835;53.256;6.456;2023-12-20T13:40:34;6.90;99.90
51765;DHT22;37835;53.256;6.456;2023-12-20T13:42:59;7.10;99.90
51765;DHT22;37835;53.256;6.456;2023-12-20T13:45:25;7.00;99.90
51765;DHT22;37835;53.256;6.456;2023-12-20T13:47:51;7.00;99.90
51765;DHT22;37835;53.256;6.456;2023-12-20T13:50:16;7.40;99.90
51765;DHT22;37835;53.256;6.456;2023-12-20T13:52:42;7.30;99.90
51765;DHT22;37835;53.256;6.456;2023-12-20T13:55:08;7.00;99.90
51765;DHT22;37835;53.256;6.456;2023-12-20T13:57:35;6.70;99.90
51765;DHT22;37835;53.256;6.456;2023-12-20T14:00:04;7.30;99.90
51765;DHT22;37835;53.256;6.456;2023-12-20T14:02:30;6.90;99.90
51765;DHT22;37835;53.256;6.456;2023-12-20T14:04:56;7.10;99.90
51765;DHT22;37835;53.256;6.456;2023-12-20T14:07:21;6.80;99.90
51765;DHT22;37835;53.256;6.456;2023-12-20T14:09:47;6.80;99.90
51765;DHT22;37835;53.256;6.456;2023-12-20T14:12:13;6.80;99.90
51765;DHT22;37835;53.256;6.456;2023-12-20T14:14:39;6.80;99.90
51765;DHT22;37835;53.256;6.456;2023-12-20T14:17:05;6.70;99.90
51765;DHT22;37835;53.256;6.456;2023-12-20T14:19:34;6.70;99.90
51765;DHT22;37835;53.256;6.456;2023-12-20T14:22:00;6.70;99.90
51765;DHT22;37835;53.256;6.456;2023-12-20T14:24:27;7.00;99.90
51765;DHT22;37835;53.256;6.456;2023-12-20T14:26:53;6.70;99.90
51765;DHT22;37835;53.256;6.456;2023-12-20T14:29:19;6.20;99.90
51765;DHT22;37835;53.256;6.456;2023-12-20T14:31:45;6.70;99.90
51765;DHT22;37835;53.256;6.456;2023-12-20T14:34:10;6.60;99.90
51765;DHT22;37835;53.256;6.456;2023-12-20T14:36:37;6.60;99.90
51765;DHT22;37835;53.256;6.456;2023-12-20T14:39:03;6.60;99.90
51765;DHT22;37835;53.256;6.456;2023-12-20T14:41:30;6.60;99.90
51765;DHT22;37835;53.256;6.456;2023-12-20T14:43:55;6.30;99.90
51765;DHT22;37835;53.256;6.456;2023-12-20T14:46:21;6.50;99.90
51765;DHT22;37835;53.256;6.456;2023-12-20T14:48:47;6.50;99.90
51765;DHT22;37835;53.256;6.456;2023-12-20T14:51:14;6.30;99.90
51765;DHT22;37835;53.256;6.456;2023-12-20T14:53:40;6.50;99.90
51765;DHT22;37835;53.256;6.456;2023-12-20T14:56:07;6.80;99.90
51765;DHT22;37835;53.256;6.456;2023-12-20T14:58:36;6.90;99.90
51765;DHT22;37835;53.256;6.456;2023-12-20T15:01:02;6.40;99.90
51765;DHT22;37835;53.256;6.456;2023-12-20T15:03:28;6.40;99.90
51765;DHT22;37835;53.256;6.456;2023-12-20T15:05:55;6.40;99.90
51765;DHT22;37835;53.256;6.456;2023-12-20T15:08:24;6.40;99.90
51765;DHT22;37835;53.256;6.456;2023-12-20T15:10:50;6.30;99.90
51765;DHT22;37835;53.256;6.456;2023-12-20T15:13:16;6.40;99.90
51765;DHT22;37835;53.256;6.456;2023-12-20T15:15:41;6.40;99.90
51765;DHT22;37835;53.256;6.456;2023-12-20T15:18:07;6.40;99.90
51765;DHT22;37835;53.256;6.456;2023-12-20T15:20:33;7.30;99.90
51765;DHT22;37835;53.256;6.456;2023-12-20T15:22:59;6.30;99.90
51765;DHT22;37835;53.256;6.456;2023-12-20T15:25:32;6.40;99.90
51765;DHT22;37835;53.256;6.456;2023-12-20T15:27:58;6.40;99.90
51765;DHT22;37835;53.256;6.456;2023-12-20T15:30:23;6.40;99.90
51765;DHT22;37835;53.256;6.456;2023-12-20T15:32:50;6.30;99.90
51765;DHT22;37835;53.256;6.456;2023-12-20T15:35:16;6.20;99.90
51765;DHT22;37835;53.256;6.456;2023-12-20T15:37:42;6.30;99.90
51765;DHT22;37835;53.256;6.456;2023-12-20T15:40:08;6.30;99.90
51765;DHT22;37835;53.256;6.456;2023-12-20T15:42:40;6.30;99.90
51765;DHT22;37835;53.256;6.456;2023-12-20T15:45:07;6.40;99.90